createdAt,value
2023-02-23T00:02:07.295Z,99328.44
2023-02-23T00:04:35.548Z,99341.13
2023-02-23T00:07:02.915Z,99341.94
2023-02-23T00:09:35.894Z,99342.81
2023-02-23T00:12:09.330Z,99337.72
2023-02-23T00:14:38.397Z,99348.72
2023-02-23T00:17:13.939Z,99344.53
2023-02-23T00:19:43.331Z,99343.69
2023-02-23T00:22:10.454Z,99343.69
2023-02-23T00:24:38.721Z,99354.69
2023-02-23T00:27:06.509Z,99337.75
2023-02-23T00:29:39.337Z,99338.63
2023-02-23T00:32:06.289Z,99342.00
2023-02-23T00:34:33.142Z,99347.91
2023-02-23T00:36:59.839Z,99337.78
2023-02-23T00:39:29.023Z,99341.22
2023-02-23T00:41:57.202Z,99338.69
2023-02-23T00:44:24.964Z,99341.25
2023-02-23T00:46:52.894Z,99337.91
2023-02-23T00:49:23.346Z,99336.22
2023-02-23T00:51:50.641Z,99331.16
2023-02-23T00:54:20.361Z,99337.97
2023-02-23T00:56:48.014Z,99330.38
2023-02-23T00:59:15.329Z,99343.09
2023-02-23T01:01:42.880Z,99340.56
2023-02-23T01:04:11.887Z,99339.75
2023-02-23T01:06:40.781Z,99343.13
2023-02-23T01:09:14.626Z,99344.81
2023-02-23T01:11:42.057Z,99344.00
2023-02-23T01:14:10.580Z,99340.66
2023-02-23T01:16:38.858Z,99341.47
2023-02-23T01:19:06.709Z,99347.41
2023-02-23T01:21:37.929Z,99339.81
2023-02-23T01:24:06.185Z,99341.53
2023-02-23T01:26:45.199Z,99342.41
2023-02-23T01:29:16.916Z,99342.41
2023-02-23T01:31:48.278Z,99344.97
2023-02-23T01:34:15.648Z,99342.44
2023-02-23T01:36:44.534Z,99340.78
2023-02-23T01:39:18.658Z,99351.78
2023-02-23T01:41:45.774Z,99347.59
2023-02-23T01:44:15.337Z,99341.66
2023-02-23T01:46:46.161Z,99338.31
2023-02-23T01:49:22.295Z,99344.25
2023-02-23T01:52:17.015Z,99334.97
2023-02-23T01:54:51.464Z,99338.38
2023-02-23T01:57:24.803Z,99337.56
2023-02-23T01:59:52.705Z,99342.63
2023-02-23T02:02:30.607Z,99338.41
2023-02-23T02:04:57.504Z,99337.56
2023-02-23T02:07:29.790Z,99335.03
2023-02-23T02:10:22.080Z,99346.06
2023-02-23T02:12:57.552Z,99345.19
2023-02-23T02:15:31.609Z,99335.91
2023-02-23T02:18:23.352Z,99340.16
2023-02-23T02:21:26.224Z,99340.19
2023-02-23T02:24:47.511Z,99341.06
2023-02-23T02:27:50.978Z,99338.56
2023-02-23T02:30:57.639Z,99342.84
2023-02-23T02:33:59.118Z,99342.03
2023-02-23T02:37:07.056Z,99342.03
2023-02-23T02:40:19.372Z,99334.47
2023-02-23T02:43:00.295Z,99336.19
2023-02-23T02:45:57.084Z,99337.03
2023-02-23T02:48:33.116Z,99341.25
2023-02-23T02:51:23.985Z,99337.03
2023-02-23T02:54:07.234Z,99335.38
2023-02-23T02:56:43.332Z,99330.28
2023-02-23T02:59:34.824Z,99334.53
2023-02-23T03:02:23.037Z,99326.09
2023-02-23T03:05:08.227Z,99336.28
2023-02-23T03:08:09.682Z,99329.53
2023-02-23T03:11:24.895Z,99337.19
2023-02-23T03:14:47.368Z,99331.28
2023-02-23T03:17:54.146Z,99334.69
2023-02-23T03:20:55.129Z,99333.91
2023-02-23T03:24:25.402Z,99339.81
2023-02-23T03:27:42.991Z,99334.78
2023-02-23T03:30:45.931Z,99338.22
2023-02-23T03:33:40.716Z,99337.34
2023-02-23T03:36:44.708Z,99343.28
2023-02-23T03:39:44.193Z,99339.88
2023-02-23T03:42:36.937Z,99341.59
2023-02-23T03:45:34.516Z,99340.75
2023-02-23T03:48:25.431Z,99334.00
2023-02-23T03:51:21.731Z,99345.81
2023-02-23T03:54:16.072Z,99346.66
2023-02-23T03:57:07.136Z,99343.25
2023-02-23T04:00:02.407Z,99341.56
2023-02-23T04:02:50.409Z,99343.25
2023-02-23T04:05:38.597Z,99350.03
2023-02-23T04:08:29.879Z,99344.09
2023-02-23T04:12:02.562Z,99349.19
2023-02-23T04:14:43.774Z,99350.88
2023-02-23T04:17:12.491Z,99345.84
2023-02-23T04:19:39.211Z,99351.75
2023-02-23T04:22:05.933Z,99354.25
2023-02-23T04:24:32.781Z,99361.03
2023-02-23T04:26:59.522Z,99359.31
2023-02-23T04:29:26.271Z,99361.81
2023-02-23T04:31:54.057Z,99358.47
2023-02-23T04:34:20.801Z,99360.16
2023-02-23T04:36:47.808Z,99360.16
2023-02-23T04:39:14.526Z,99366.06
2023-02-23T04:41:41.263Z,99365.25
2023-02-23T04:44:08.026Z,99371.97
2023-02-23T04:46:34.768Z,99364.38
2023-02-23T04:49:01.912Z,99371.13
2023-02-23T04:51:32.125Z,99372.81
2023-02-23T04:53:58.863Z,99368.56
2023-02-23T04:56:25.940Z,99371.97
2023-02-23T04:58:53.283Z,99370.28
2023-02-23T05:01:22.310Z,99369.41
2023-02-23T05:03:50.142Z,99371.06
2023-02-23T05:06:20.943Z,99371.09
2023-02-23T05:08:47.908Z,99370.28
2023-02-23T05:11:14.820Z,99372.84
2023-02-23T05:13:41.545Z,99372.81
2023-02-23T05:16:08.708Z,99371.16
2023-02-23T05:18:35.559Z,99367.78
2023-02-23T05:21:07.067Z,99373.66
2023-02-23T05:23:36.323Z,99374.53
2023-02-23T05:26:13.348Z,99375.38
2023-02-23T05:28:42.002Z,99380.47
2023-02-23T05:31:09.934Z,99382.69
2023-02-23T05:33:45.665Z,99376.84
2023-02-23T05:36:16.640Z,99377.75
2023-02-23T05:38:45.848Z,99380.34
2023-02-23T05:41:20.589Z,99377.84
2023-02-23T05:43:52.283Z,99382.09
2023-02-23T05:46:25.582Z,99383.75
2023-02-23T05:48:59.103Z,99377.06
2023-02-23T05:51:27.807Z,99382.13
2023-02-23T05:53:54.591Z,99380.44
2023-02-23T05:56:22.004Z,99391.41
2023-02-23T05:58:55.402Z,99382.13
2023-02-23T06:01:23.395Z,99380.44
2023-02-23T06:03:50.746Z,99382.09
2023-02-23T06:06:18.457Z,99382.09
2023-02-23T06:08:45.210Z,99377.03
2023-02-23T06:11:12.258Z,99373.63
2023-02-23T06:13:39.093Z,99388.00
2023-02-23T06:16:07.932Z,99387.19
2023-02-23T06:18:35.384Z,99389.72
2023-02-23T06:21:04.086Z,99390.56
2023-02-23T06:23:32.569Z,99396.47
2023-02-23T06:26:00.000Z,99394.78
2023-02-23T06:28:28.226Z,99399.03
2023-02-23T06:30:56.092Z,99409.19
2023-02-23T06:33:23.804Z,99414.25
2023-02-23T06:35:50.600Z,99416.84
2023-02-23T06:38:17.562Z,99405.84
2023-02-23T06:40:44.707Z,99419.38
2023-02-23T06:43:11.451Z,99412.56
2023-02-23T06:45:38.773Z,99424.44
2023-02-23T06:48:06.018Z,99421.06
2023-02-23T06:50:32.812Z,99421.03
2023-02-23T06:52:59.551Z,99430.38
2023-02-23T06:55:26.441Z,99438.03
2023-02-23T06:57:54.223Z,99438.88
2023-02-23T07:00:21.732Z,99438.88
2023-02-23T07:02:48.712Z,99446.44
2023-02-23T07:05:16.205Z,99440.56
2023-02-23T07:07:43.256Z,99443.91
2023-02-23T07:10:11.043Z,99452.38
2023-02-23T07:12:37.762Z,99454.88
2023-02-23T07:15:05.814Z,99458.22
2023-02-23T07:17:32.561Z,99461.63
2023-02-23T07:19:59.361Z,99461.63
2023-02-23T07:22:29.351Z,99463.31
2023-02-23T07:24:57.495Z,99465.81
2023-02-23T07:27:24.446Z,99464.97
2023-02-23T07:29:51.328Z,99473.38
2023-02-23T07:32:18.249Z,99470.84
2023-02-23T07:34:45.954Z,99478.44
2023-02-23T07:37:12.663Z,99474.16
2023-02-23T07:39:39.424Z,99475.84
2023-02-23T07:42:06.290Z,99479.22
2023-02-23T07:44:33.068Z,99480.91
2023-02-23T07:46:59.813Z,99486.78
2023-02-23T07:49:26.803Z,99484.22
2023-02-23T07:51:53.723Z,99487.63
2023-02-23T07:54:21.812Z,99493.50
2023-02-23T07:56:48.693Z,99487.56
2023-02-23T07:59:15.414Z,99491.78
2023-02-23T08:01:42.132Z,99492.63
2023-02-23T08:04:09.181Z,99490.91
2023-02-23T08:06:36.533Z,99490.88
2023-02-23T08:09:05.220Z,99495.91
2023-02-23T08:11:32.082Z,99504.41
2023-02-23T08:14:00.290Z,99507.72
2023-02-23T08:16:29.423Z,99501.84
2023-02-23T08:19:00.932Z,99506.88
2023-02-23T08:21:29.826Z,99509.38
2023-02-23T08:24:02.954Z,99506.81
2023-02-23T08:26:45.033Z,99508.50
2023-02-23T08:29:14.309Z,99509.34
2023-02-23T08:31:41.242Z,99514.38
2023-02-23T08:34:13.652Z,99513.53
2023-02-23T08:36:40.572Z,99516.06
2023-02-23T08:39:14.699Z,99524.47
2023-02-23T08:41:42.408Z,99523.63
2023-02-23T08:44:09.344Z,99522.78
2023-02-23T08:46:36.720Z,99527.84
2023-02-23T08:49:05.989Z,99522.78
2023-02-23T08:51:37.071Z,99537.13
2023-02-23T08:54:04.000Z,99518.53
2023-02-23T08:56:36.338Z,99526.16
2023-02-23T08:59:03.099Z,99532.00
2023-02-23T09:01:30.191Z,99530.34
2023-02-23T09:04:04.987Z,99533.69
2023-02-23T09:06:35.371Z,99543.00
2023-02-23T09:09:02.360Z,99539.63
2023-02-23T09:11:29.090Z,99542.19
2023-02-23T09:13:55.944Z,99545.53
2023-02-23T09:16:24.050Z,99552.31
2023-02-23T09:18:51.967Z,99554.84
2023-02-23T09:21:22.342Z,99542.97
2023-02-23T09:23:51.260Z,99551.44
2023-02-23T09:26:19.988Z,99544.66
2023-02-23T09:28:47.474Z,99548.03
2023-02-23T09:31:31.502Z,99556.47
2023-02-23T09:34:01.724Z,99550.56
2023-02-23T09:36:32.579Z,99552.22
2023-02-23T09:38:59.534Z,99552.25
2023-02-23T09:41:26.317Z,99557.28
2023-02-23T09:44:31.320Z,99556.44
2023-02-23T09:47:22.660Z,99562.34
2023-02-23T09:49:51.748Z,99566.59
2023-02-23T09:52:26.732Z,99570.78
2023-02-23T09:54:54.096Z,99581.81
2023-02-23T09:57:39.806Z,99577.63
2023-02-23T10:04:46.969Z,99587.88
2023-02-23T10:07:31.480Z,99596.31
2023-02-23T10:14:07.864Z,99598.00
2023-02-23T10:16:55.233Z,99603.06
2023-02-23T10:20:03.580Z,99601.38
2023-02-23T10:22:44.933Z,99599.69
2023-02-23T10:25:25.820Z,99603.03
2023-02-23T10:27:56.120Z,99607.25
2023-02-23T10:30:32.900Z,99613.13
2023-02-23T10:33:16.443Z,99608.91
2023-02-23T10:35:47.012Z,99608.06
2023-02-23T10:38:19.544Z,99608.91
2023-02-23T10:40:55.223Z,99615.66
2023-02-23T10:43:22.367Z,99609.69
2023-02-23T10:45:52.814Z,99614.75
2023-02-23T10:48:28.881Z,99618.94
2023-02-23T10:51:02.962Z,99620.63
2023-02-23T10:53:37.537Z,99618.09
2023-02-23T10:56:20.723Z,99623.19
2023-02-23T10:59:01.671Z,99619.81
2023-02-23T11:02:00.957Z,99614.78
2023-02-23T11:04:32.542Z,99613.97
2023-02-23T11:07:16.690Z,99615.66
2023-02-23T11:09:47.556Z,99621.59
2023-02-23T11:12:43.354Z,99624.16
2023-02-23T11:15:50.795Z,99619.97
2023-02-23T11:18:25.491Z,99627.63
2023-02-23T11:20:53.367Z,99619.16
2023-02-23T11:23:39.045Z,99626.75
2023-02-23T11:26:45.736Z,99619.16
2023-02-23T11:29:25.537Z,99635.25
2023-02-23T11:31:58.271Z,99621.69
2023-02-23T11:34:33.070Z,99618.28
2023-02-23T11:37:20.703Z,99623.34
2023-02-23T11:40:27.101Z,99629.25
2023-02-23T11:43:07.959Z,99621.66
2023-02-23T11:45:58.357Z,99615.75
2023-02-23T11:49:08.773Z,99619.97
2023-02-23T11:51:39.994Z,99608.97
2023-02-23T11:54:22.139Z,99616.53
2023-02-23T11:56:52.177Z,99618.19
2023-02-23T11:59:27.120Z,99619.84
2023-02-23T12:02:03.897Z,99620.66
2023-02-23T12:04:40.703Z,99615.53
2023-02-23T12:07:46.302Z,99621.44
2023-02-23T12:10:28.115Z,99614.69
2023-02-23T12:13:07.570Z,99613.84
2023-02-23T12:16:15.551Z,99610.47
2023-02-23T12:19:04.272Z,99610.47
2023-02-23T12:22:00.174Z,99607.94
2023-02-23T12:24:44.454Z,99605.41
2023-02-23T12:27:17.652Z,99612.16
2023-02-23T12:30:38.210Z,99610.41
2023-02-23T12:33:22.803Z,99608.69
2023-02-23T12:35:59.141Z,99614.66
2023-02-23T12:38:49.126Z,99611.28
2023-02-23T12:41:45.255Z,99607.13
2023-02-23T12:44:48.614Z,99604.63
2023-02-23T12:47:52.874Z,99616.56
2023-02-23T12:50:37.984Z,99613.25
2023-02-23T12:53:42.905Z,99618.38
2023-02-23T12:56:43.834Z,99615.00
2023-02-23T12:59:43.917Z,99615.88
2023-02-23T13:02:29.893Z,99612.47
2023-02-23T13:05:15.315Z,99609.03
2023-02-23T13:08:20.655Z,99605.63
2023-02-23T13:11:08.592Z,99602.22
2023-02-23T13:14:26.694Z,99597.91
2023-02-23T13:17:09.230Z,99605.47
2023-02-23T13:19:49.080Z,99602.81
2023-02-23T13:22:36.596Z,99602.69
2023-02-23T13:25:28.185Z,99594.03
2023-02-23T13:28:01.674Z,99597.22
2023-02-23T13:30:35.945Z,99600.47
2023-02-23T13:33:19.233Z,99596.03
2023-02-23T13:35:46.217Z,99606.06
2023-02-23T13:38:29.989Z,99608.41
2023-02-23T13:41:33.904Z,99597.25
2023-02-23T13:44:32.551Z,99605.66
2023-02-23T13:47:38.094Z,99600.50
2023-02-23T13:50:18.079Z,99607.28
2023-02-23T13:52:46.678Z,99598.81
2023-02-23T13:55:40.009Z,99603.03
2023-02-23T13:58:19.729Z,99610.63
2023-02-23T14:01:03.334Z,99607.25
2023-02-23T14:03:39.795Z,99605.56
2023-02-23T14:06:08.037Z,99612.31
2023-02-23T14:08:39.138Z,99602.97
2023-02-23T14:11:06.957Z,99604.59
2023-02-23T14:13:41.477Z,99610.50
2023-02-23T14:16:19.594Z,99609.56
2023-02-23T14:19:11.087Z,99616.25
2023-02-23T14:21:59.041Z,99623.81
2023-02-23T14:24:27.896Z,99624.53
2023-02-23T14:27:41.492Z,99615.13
2023-02-23T14:30:11.859Z,99616.78
2023-02-23T14:32:42.285Z,99614.16
2023-02-23T14:35:33.931Z,99614.09
2023-02-23T14:38:08.011Z,99608.97
2023-02-23T14:40:42.576Z,99605.59
2023-02-23T14:43:39.003Z,99610.00
2023-02-23T14:46:27.984Z,99622.81
2023-02-23T14:49:10.287Z,99612.69
2023-02-23T14:51:48.026Z,99611.06
2023-02-23T14:54:35.344Z,99611.97
2023-02-23T14:57:20.087Z,99612.03
2023-02-23T15:00:01.606Z,99617.22
2023-02-23T15:02:30.438Z,99623.22
2023-02-23T15:04:57.563Z,99625.00
2023-02-23T15:07:40.745Z,99624.19
2023-02-23T15:10:20.382Z,99631.06
2023-02-23T15:12:47.474Z,99631.19
2023-02-23T15:15:20.885Z,99638.09
2023-02-23T15:17:57.715Z,99639.81
2023-02-23T15:23:05.782Z,99628.13
2023-02-23T15:25:39.197Z,99626.50
2023-02-23T15:28:26.335Z,99630.78
2023-02-23T15:30:59.879Z,99634.28
2023-02-23T15:33:30.245Z,99634.38
2023-02-23T15:36:02.962Z,99643.75
2023-02-23T15:38:43.400Z,99637.88
2023-02-23T15:41:36.496Z,99640.44
2023-02-23T15:44:22.806Z,99643.06
2023-02-23T15:46:58.854Z,99643.13
2023-02-23T15:49:37.281Z,99637.25
2023-02-23T15:52:14.823Z,99655.09
2023-02-23T15:55:01.556Z,99654.31
2023-02-23T15:57:52.794Z,99650.97
2023-02-23T16:00:43.142Z,99650.19
2023-02-23T16:03:34.127Z,99647.66
2023-02-23T16:06:06.624Z,99646.00
2023-02-23T16:08:36.735Z,99645.19
2023-02-23T16:11:19.124Z,99644.38
2023-02-23T16:13:49.101Z,99640.19
2023-02-23T16:16:20.200Z,99633.44
2023-02-23T16:18:54.632Z,99644.47
2023-02-23T16:21:25.325Z,99640.28
2023-02-23T16:23:55.152Z,99626.72
2023-02-23T16:26:57.602Z,99633.53
2023-02-23T16:29:41.510Z,99637.03
2023-02-23T16:32:21.192Z,99639.56
2023-02-23T16:34:54.853Z,99643.84
2023-02-23T16:37:26.056Z,99637.91
2023-02-23T16:39:55.888Z,99641.28
2023-02-23T16:42:33.739Z,99638.78
2023-02-23T16:45:01.454Z,99641.34
2023-02-23T16:47:50.071Z,99638.81
2023-02-23T16:50:24.414Z,99635.47
2023-02-23T16:52:53.468Z,99634.63
2023-02-23T16:55:29.733Z,99634.63
2023-02-23T16:58:03.140Z,99638.88
2023-02-23T17:00:33.334Z,99643.16
2023-02-23T17:03:00.897Z,99645.66
2023-02-23T17:05:29.124Z,99633.84
2023-02-23T17:07:58.169Z,99638.09
2023-02-23T17:10:30.869Z,99631.34
2023-02-23T17:13:06.174Z,99639.81
2023-02-23T17:15:37.698Z,99630.50
2023-02-23T17:18:05.553Z,99643.19
2023-02-23T17:20:33.305Z,99633.91
2023-02-23T17:23:02.035Z,99639.84
2023-02-23T17:25:29.325Z,99645.75
2023-02-23T17:27:58.313Z,99652.56
2023-02-23T17:30:26.053Z,99654.25
2023-02-23T17:32:57.108Z,99657.63
2023-02-23T17:35:25.691Z,99664.44
2023-02-23T17:37:53.072Z,99661.03
2023-02-23T17:40:30.973Z,99655.16
2023-02-23T17:43:00.838Z,99656.84
2023-02-23T17:45:28.939Z,99665.31
2023-02-23T17:47:56.971Z,99660.25
2023-02-23T17:50:26.301Z,99665.34
2023-02-23T17:52:54.302Z,99659.44
2023-02-23T17:55:23.063Z,99662.84
2023-02-23T17:57:49.809Z,99663.69
2023-02-23T18:00:18.465Z,99669.63
2023-02-23T18:02:45.835Z,99667.09
2023-02-23T18:05:14.270Z,99667.09
2023-02-23T18:07:41.534Z,99673.03
2023-02-23T18:10:09.582Z,99676.44
2023-02-23T18:12:36.600Z,99674.72
2023-02-23T18:15:03.656Z,99668.84
2023-02-23T18:17:32.468Z,99675.59
2023-02-23T18:20:00.333Z,99668.00
2023-02-23T18:22:27.191Z,99679.84
2023-02-23T18:24:54.061Z,99674.75
2023-02-23T18:27:20.824Z,99675.63
2023-02-23T18:29:47.600Z,99680.69
2023-02-23T18:32:14.450Z,99676.50
2023-02-23T18:34:41.373Z,99679.88
2023-02-23T18:37:09.886Z,99677.34
2023-02-23T18:39:36.744Z,99672.28
2023-02-23T18:42:04.392Z,99673.97
2023-02-23T18:44:33.436Z,99676.50
2023-02-23T18:47:02.350Z,99668.94
2023-02-23T18:49:29.114Z,99663.88
2023-02-23T18:51:55.869Z,99673.16
2023-02-23T18:54:25.829Z,99668.09
2023-02-23T18:56:52.584Z,99671.47
2023-02-23T18:59:19.312Z,99679.09
2023-02-23T19:01:47.860Z,99677.41
2023-02-23T19:04:15.288Z,99678.28
2023-02-23T19:06:45.222Z,99671.47
2023-02-23T19:09:14.404Z,99674.00
2023-02-23T19:11:42.934Z,99676.56
2023-02-23T19:14:16.544Z,99668.97
2023-02-23T19:16:46.657Z,99672.38
2023-02-23T19:19:15.114Z,99665.59
2023-02-23T19:21:42.192Z,99668.16
2023-02-23T19:24:09.435Z,99670.69
2023-02-23T19:26:37.470Z,99677.47
2023-02-23T19:29:04.877Z,99674.13
2023-02-23T19:31:31.895Z,99676.66
2023-02-23T19:33:59.622Z,99675.81
2023-02-23T19:36:33.786Z,99676.66
2023-02-23T19:39:11.047Z,99683.44
2023-02-23T19:41:39.686Z,99684.28
2023-02-23T19:44:06.768Z,99682.59
2023-02-23T19:46:34.883Z,99680.06
2023-02-23T19:49:02.049Z,99693.56
2023-02-23T19:51:29.181Z,99693.59
2023-02-23T19:53:58.190Z,99694.44
2023-02-23T19:56:27.853Z,99693.59
2023-02-23T19:58:56.975Z,99694.44
2023-02-23T20:01:27.475Z,99695.28
2023-02-23T20:03:56.581Z,99696.13
2023-02-23T20:06:27.388Z,99692.78
2023-02-23T20:08:55.052Z,99693.59
2023-02-23T20:11:22.625Z,99691.09
2023-02-23T20:13:50.879Z,99702.91
2023-02-23T20:16:17.784Z,99704.59
2023-02-23T20:18:44.933Z,99702.06
2023-02-23T20:21:16.367Z,99697.00
2023-02-23T20:23:45.603Z,99699.53
2023-02-23T20:26:17.623Z,99700.41
2023-02-23T20:28:44.836Z,99697.00
2023-02-23T20:31:20.909Z,99702.06
2023-02-23T20:33:51.379Z,99697.84
2023-02-23T20:36:20.628Z,99691.06
2023-02-23T20:38:47.860Z,99686.00
2023-02-23T20:41:15.078Z,99686.00
2023-02-23T20:43:43.658Z,99680.06
2023-02-23T20:46:13.656Z,99683.47
2023-02-23T20:48:42.376Z,99679.25
2023-02-23T20:51:14.215Z,99680.06
2023-02-23T20:53:46.523Z,99680.94
2023-02-23T20:56:16.688Z,99682.63
2023-02-23T20:58:44.394Z,99683.47
2023-02-23T21:01:18.412Z,99684.31
2023-02-23T21:03:45.347Z,99677.56
2023-02-23T21:06:12.442Z,99675.03
2023-02-23T21:08:42.107Z,99687.69
2023-02-23T21:11:08.953Z,99671.66
2023-02-23T21:13:36.670Z,99670.78
2023-02-23T21:16:03.704Z,99675.00
2023-02-23T21:18:31.839Z,99674.16
2023-02-23T21:21:09.302Z,99679.25
2023-02-23T21:23:39.591Z,99674.19
2023-02-23T21:26:15.919Z,99677.56
2023-02-23T21:28:45.229Z,99679.25
2023-02-23T21:31:14.238Z,99678.41
2023-02-23T21:33:43.706Z,99665.72
2023-02-23T21:36:18.976Z,99671.63
2023-02-23T21:38:45.941Z,99660.66
2023-02-23T21:41:14.525Z,99664.06
2023-02-23T21:43:43.730Z,99663.19
2023-02-23T21:46:15.619Z,99669.97
2023-02-23T21:48:43.370Z,99657.28
2023-02-23T21:51:14.851Z,99669.13
2023-02-23T21:53:43.334Z,99668.28
2023-02-23T21:56:16.829Z,99666.59
2023-02-23T21:58:53.031Z,99664.91
2023-02-23T22:01:27.082Z,99666.63
2023-02-23T22:03:55.151Z,99660.69
2023-02-23T22:06:28.968Z,99666.63
2023-02-23T22:08:56.526Z,99657.34
2023-02-23T22:11:26.854Z,99656.50
2023-02-23T22:13:59.536Z,99659.91
2023-02-23T22:16:41.281Z,99656.53
2023-02-23T22:19:09.317Z,99652.31
2023-02-23T22:21:41.647Z,99648.91
2023-02-23T22:24:10.773Z,99653.16
2023-02-23T22:26:53.984Z,99652.34
2023-02-23T22:29:26.470Z,99651.50
2023-02-23T22:31:53.628Z,99645.56
2023-02-23T22:34:20.908Z,99645.56
2023-02-23T22:36:48.599Z,99645.56
2023-02-23T22:39:18.340Z,99644.72
2023-02-23T22:41:47.504Z,99638.84
2023-02-23T22:44:19.029Z,99638.81
2023-02-23T22:46:48.291Z,99644.75
2023-02-23T22:49:16.237Z,99644.75
2023-02-23T22:51:43.871Z,99639.69
2023-02-23T22:54:13.341Z,99645.59
2023-02-23T22:56:42.200Z,99635.47
2023-02-23T22:59:10.943Z,99626.19
2023-02-23T23:01:39.096Z,99617.72
2023-02-23T23:04:10.361Z,99616.88
2023-02-23T23:06:41.230Z,99616.91
2023-02-23T23:09:12.123Z,99612.69
2023-02-23T23:11:42.677Z,99616.06
2023-02-23T23:14:11.434Z,99613.53
2023-02-23T23:16:47.588Z,99627.03
2023-02-23T23:19:19.111Z,99618.63
2023-02-23T23:21:46.296Z,99613.56
2023-02-23T23:24:13.743Z,99609.34
2023-02-23T23:26:40.907Z,99611.84
2023-02-23T23:29:11.565Z,99611.03
2023-02-23T23:31:45.137Z,99609.34
2023-02-23T23:34:14.024Z,99602.56
2023-02-23T23:36:49.100Z,99599.19
2023-02-23T23:39:22.950Z,99589.06
2023-02-23T23:41:50.852Z,99592.44
2023-02-23T23:44:21.686Z,99591.59
2023-02-23T23:46:50.798Z,99589.91
2023-02-23T23:49:25.473Z,99593.28
2023-02-23T23:51:56.298Z,99593.28
2023-02-23T23:54:30.805Z,99582.31
2023-02-23T23:57:05.685Z,99583.13
2023-02-23T23:59:34.787Z,99590.75
